createdAt,value
2022-09-23T00:03:25.417Z,28.52
2022-09-23T00:08:27.149Z,23.65
2022-09-23T00:13:28.939Z,24.52
2022-09-23T00:18:30.673Z,24.42
2022-09-23T00:23:32.433Z,24.30
2022-09-23T00:28:34.178Z,23.08
2022-09-23T00:33:35.708Z,26.17
2022-09-23T00:38:37.370Z,27.52
2022-09-23T00:43:39.102Z,29.00
2022-09-23T00:48:40.633Z,30.17
2022-09-23T00:53:42.196Z,31.33
2022-09-23T00:58:43.716Z,32.90
2022-09-23T01:03:45.230Z,29.73
2022-09-23T01:08:46.962Z,32.25
2022-09-23T01:13:48.701Z,35.70
2022-09-23T01:18:50.480Z,27.35
2022-09-23T01:23:52.217Z,34.78
2022-09-23T01:28:53.961Z,30.30
2022-09-23T01:33:55.720Z,30.23
2022-09-23T01:38:57.488Z,32.55
2022-09-23T01:43:59.241Z,32.70
2022-09-23T01:49:00.835Z,34.25
2022-09-23T01:54:02.416Z,27.88
2022-09-23T01:59:04.202Z,37.15
2022-09-23T02:04:06.037Z,31.63
2022-09-23T02:09:07.683Z,36.10
2022-09-23T02:14:09.240Z,26.05
2022-09-23T02:19:10.897Z,27.80
2022-09-23T02:24:12.697Z,31.42
2022-09-23T02:29:14.395Z,26.92
2022-09-23T02:34:16.153Z,28.67
2022-09-23T02:39:17.912Z,30.60
2022-09-23T02:44:19.467Z,30.63
2022-09-23T02:49:21.094Z,32.28
2022-09-23T02:54:22.853Z,34.47
2022-09-23T02:59:24.625Z,29.40
2022-09-23T03:04:26.141Z,30.67
2022-09-23T03:09:27.731Z,31.33
2022-09-23T03:14:29.261Z,28.08
2022-09-23T03:19:30.782Z,29.90
2022-09-23T03:24:32.464Z,33.13
2022-09-23T03:29:34.250Z,32.17
2022-09-23T03:34:35.970Z,33.15
2022-09-23T03:39:37.697Z,34.60
2022-09-23T03:44:39.471Z,32.47
2022-09-23T03:49:40.984Z,36.25
2022-09-23T03:54:42.678Z,35.47
2022-09-23T03:59:44.419Z,33.20
2022-09-23T04:04:46.207Z,39.30
2022-09-23T04:09:47.914Z,35.45
2022-09-23T04:14:49.694Z,36.83
2022-09-23T04:19:51.392Z,37.92
2022-09-23T04:24:53.177Z,38.05
2022-09-23T04:29:54.918Z,34.80
2022-09-23T04:34:56.692Z,32.92
2022-09-23T04:39:58.462Z,33.65
2022-09-23T04:44:59.989Z,34.60
2022-09-23T04:50:01.657Z,34.25
2022-09-23T04:55:03.176Z,40.40
2022-09-23T05:00:04.745Z,37.22
2022-09-23T05:05:06.321Z,43.83
2022-09-23T05:10:08.019Z,38.75
2022-09-23T05:15:09.557Z,43.08
2022-09-23T05:20:11.225Z,55.38
2022-09-23T05:25:12.760Z,62.00
2022-09-23T05:30:14.419Z,49.83
2022-09-23T05:35:16.182Z,57.15
2022-09-23T05:40:17.986Z,66.35
2022-09-23T05:45:19.698Z,52.50
2022-09-23T05:50:21.429Z,41.55
2022-09-23T05:55:23.183Z,46.03
2022-09-23T06:00:24.941Z,45.60
2022-09-23T06:05:26.477Z,35.08
2022-09-23T06:10:28.233Z,35.25
2022-09-23T06:15:29.878Z,33.55
2022-09-23T06:20:31.390Z,35.20
2022-09-23T06:25:33.083Z,34.08
2022-09-23T06:30:34.845Z,27.60
2022-09-23T06:35:36.600Z,29.27
2022-09-23T06:40:38.416Z,30.10
2022-09-23T06:45:40.130Z,24.70
2022-09-23T06:50:41.869Z,29.30
2022-09-23T06:55:43.408Z,25.80
2022-09-23T07:00:45.061Z,23.58
2022-09-23T07:05:46.808Z,22.92
2022-09-23T07:10:48.548Z,19.15
2022-09-23T07:15:50.344Z,21.38
2022-09-23T07:20:52.094Z,16.73
2022-09-23T07:25:53.827Z,12.63
2022-09-23T07:31:00.474Z,14.60
2022-09-23T07:36:02.673Z,15.45
2022-09-23T07:41:04.397Z,10.57
2022-09-23T07:46:06.180Z,19.92
2022-09-23T07:51:07.926Z,17.42
2022-09-23T07:56:09.426Z,18.67
2022-09-23T08:01:11.173Z,12.45
2022-09-23T08:06:12.862Z,12.60
2022-09-23T08:11:14.621Z,20.17
2022-09-23T08:16:16.385Z,15.10
2022-09-23T08:21:18.130Z,15.60
2022-09-23T08:26:22.334Z,16.88
2022-09-23T08:31:24.193Z,13.02
2022-09-23T08:36:25.980Z,13.18
2022-09-23T08:41:27.542Z,9.98
2022-09-23T08:46:29.169Z,10.45
2022-09-23T08:51:30.725Z,9.18
2022-09-23T08:56:35.246Z,15.32
2022-09-23T09:01:36.953Z,8.30
2022-09-23T09:06:51.904Z,11.80
2022-09-23T09:11:55.101Z,8.02
2022-09-23T09:16:59.846Z,9.80
2022-09-23T09:22:02.087Z,8.77
2022-09-23T09:27:03.816Z,9.50
2022-09-23T09:32:05.582Z,5.68
2022-09-23T09:37:07.649Z,6.68
2022-09-23T09:42:09.402Z,8.00
2022-09-23T09:47:10.968Z,8.15
2022-09-23T09:52:12.583Z,7.72
2022-09-23T09:57:14.297Z,2.97
2022-09-23T10:02:16.064Z,3.72
2022-09-23T10:07:17.784Z,3.60
2022-09-23T10:12:19.577Z,5.60
2022-09-23T10:17:21.183Z,7.38
2022-09-23T10:22:22.739Z,4.07
2022-09-23T10:27:24.495Z,3.05
2022-09-23T10:32:26.236Z,2.90
2022-09-23T10:37:28.019Z,3.20
2022-09-23T10:42:29.761Z,2.80
2022-09-23T10:47:31.510Z,2.22
2022-09-23T10:52:33.295Z,4.28
2022-09-23T10:57:35.023Z,2.95
2022-09-23T11:02:36.773Z,3.28
2022-09-23T11:07:38.546Z,2.60
2022-09-23T11:12:40.288Z,2.20
2022-09-23T11:17:41.797Z,3.00
2022-09-23T11:22:43.500Z,3.67
2022-09-23T11:27:45.237Z,2.53
2022-09-23T11:32:47.012Z,4.00
2022-09-23T11:37:48.746Z,4.60
2022-09-23T11:42:50.562Z,4.60
2022-09-23T11:47:52.276Z,2.08
2022-09-23T11:52:54.000Z,1.33
2022-09-23T11:57:55.780Z,1.80
2022-09-23T12:03:04.578Z,1.75
2022-09-23T12:08:07.453Z,2.85
2022-09-23T12:13:08.963Z,1.50
2022-09-23T12:18:10.653Z,2.33
2022-09-23T12:23:12.374Z,2.75
2022-09-23T12:28:14.159Z,2.22
2022-09-23T12:33:15.901Z,1.48
2022-09-23T12:38:17.438Z,2.97
2022-09-23T12:43:19.121Z,1.38
2022-09-23T12:48:20.871Z,1.05
2022-09-23T12:53:22.621Z,2.53
2022-09-23T12:58:24.358Z,2.10
2022-09-23T13:03:25.871Z,2.28
2022-09-23T13:08:27.595Z,2.03
2022-09-23T13:13:29.310Z,1.63
2022-09-23T13:18:31.057Z,8.27
2022-09-23T13:23:32.828Z,2.20
2022-09-23T13:28:34.591Z,6.78
2022-09-23T13:33:36.149Z,2.17
2022-09-23T13:38:37.797Z,1.60
2022-09-23T13:43:41.493Z,1.73
2022-09-23T13:48:43.480Z,1.75
2022-09-23T13:53:45.227Z,1.98
2022-09-23T13:58:46.973Z,1.88
2022-09-23T14:03:48.495Z,2.15
2022-09-23T14:08:50.166Z,1.73
2022-09-23T14:13:51.951Z,6.40
2022-09-23T14:18:53.701Z,1.63
2022-09-23T14:23:55.537Z,2.97
2022-09-23T14:28:57.129Z,1.42
2022-09-23T14:33:58.655Z,2.05
2022-09-23T14:39:00.395Z,1.90
2022-09-23T14:44:02.228Z,3.40
2022-09-23T14:49:03.910Z,3.25
2022-09-23T14:54:05.425Z,2.15
2022-09-23T14:59:07.056Z,2.55
2022-09-23T15:04:08.868Z,12.55
2022-09-23T15:09:10.662Z,5.05
2022-09-23T15:14:36.150Z,7.00
2022-09-23T15:19:34.203Z,8.23
2022-09-23T15:24:35.923Z,2.80
2022-09-23T15:29:37.517Z,1.23
2022-09-23T15:34:39.140Z,1.95
2022-09-23T15:39:40.885Z,2.20
2022-09-23T15:44:42.629Z,3.00
2022-09-23T15:49:44.387Z,5.32
2022-09-23T15:54:46.211Z,2.63
2022-09-23T15:59:47.918Z,7.20
2022-09-23T16:04:49.686Z,8.05
2022-09-23T16:09:51.403Z,4.35
2022-09-23T16:14:53.180Z,4.85
2022-09-23T16:19:54.706Z,5.78
2022-09-23T16:24:56.356Z,8.27
2022-09-23T16:29:58.163Z,7.15
2022-09-23T16:34:59.837Z,6.28
2022-09-23T16:40:01.414Z,8.18
2022-09-23T16:45:03.083Z,13.68
2022-09-23T16:50:04.834Z,14.98
2022-09-23T16:55:06.439Z,18.88
2022-09-23T17:00:08.091Z,13.48
2022-09-23T17:05:09.830Z,15.93
2022-09-23T17:10:11.555Z,15.90
2022-09-23T17:15:13.328Z,8.93
2022-09-23T17:20:15.100Z,17.75
2022-09-23T17:25:16.726Z,10.88
2022-09-23T17:30:18.472Z,12.02
2022-09-23T17:35:20.112Z,14.82
2022-09-23T17:40:21.890Z,17.45
2022-09-23T17:45:23.595Z,9.35
2022-09-23T17:50:25.310Z,10.82
2022-09-23T17:55:27.088Z,10.70
2022-09-23T18:00:28.902Z,21.60
2022-09-23T18:05:30.570Z,19.10
2022-09-23T18:10:32.344Z,25.45
2022-09-23T18:15:34.084Z,36.13
2022-09-23T18:20:35.847Z,35.10
2022-09-23T18:25:39.803Z,47.55
2022-09-23T18:30:41.879Z,38.83
2022-09-23T18:35:43.636Z,42.65
2022-09-23T18:40:45.420Z,32.28
2022-09-23T18:45:47.177Z,22.17
2022-09-23T18:50:48.899Z,21.02
2022-09-23T18:55:50.647Z,25.48
2022-09-23T19:00:52.448Z,23.55
2022-09-23T19:05:54.161Z,22.52
2022-09-23T19:10:55.900Z,56.40
2022-09-23T19:15:57.679Z,46.33
2022-09-23T19:21:02.479Z,39.22
2022-09-23T19:26:06.486Z,34.55
2022-09-23T19:31:08.277Z,29.05
2022-09-23T19:36:09.986Z,25.20
2022-09-23T19:41:11.746Z,19.80
2022-09-23T19:46:20.852Z,22.13
2022-09-23T19:51:22.777Z,24.85
2022-09-23T19:56:24.551Z,24.40
2022-09-23T20:01:26.339Z,24.30
2022-09-23T20:06:28.058Z,23.00
2022-09-23T20:11:29.660Z,28.65
2022-09-23T20:16:31.271Z,23.75
2022-09-23T20:21:32.969Z,22.70
2022-09-23T20:26:34.657Z,27.90
2022-09-23T20:31:36.467Z,79.00
2022-09-23T20:36:38.169Z,40.95
2022-09-23T20:41:39.931Z,42.58
2022-09-23T20:46:45.491Z,30.80
2022-09-23T20:51:49.698Z,28.40
2022-09-23T20:56:51.315Z,26.02
2022-09-23T21:01:52.985Z,24.88
2022-09-23T21:06:54.644Z,25.33
2022-09-23T21:11:56.447Z,23.77
2022-09-23T21:16:58.166Z,26.52
2022-09-23T21:21:59.944Z,34.63
2022-09-23T21:27:01.462Z,45.38
2022-09-23T21:32:03.111Z,28.75
2022-09-23T21:37:04.880Z,29.85
2022-09-23T21:42:06.616Z,83.88
2022-09-23T21:47:08.451Z,62.75
2022-09-23T21:52:10.017Z,57.50
2022-09-23T21:57:11.586Z,69.40
2022-09-23T22:02:13.368Z,48.33
2022-09-23T22:07:15.102Z,38.20
2022-09-23T22:12:16.857Z,31.63
2022-09-23T22:17:18.580Z,29.48
2022-09-23T22:22:20.322Z,32.95
2022-09-23T22:27:22.077Z,29.17
2022-09-23T22:32:23.647Z,29.15
2022-09-23T22:37:25.150Z,28.77
2022-09-23T22:42:26.721Z,28.15
2022-09-23T22:47:28.495Z,32.15
2022-09-23T22:52:30.263Z,33.65
2022-09-23T22:57:32.021Z,34.70
2022-09-23T23:02:33.541Z,29.15
2022-09-23T23:07:35.176Z,32.17
2022-09-23T23:12:36.949Z,31.35
2022-09-23T23:17:38.695Z,27.27
2022-09-23T23:22:40.252Z,32.90
2022-09-23T23:27:41.797Z,32.35
2022-09-23T23:32:43.334Z,32.42
2022-09-23T23:37:45.095Z,34.30
2022-09-23T23:42:46.901Z,32.13
2022-09-23T23:47:48.593Z,30.58
2022-09-23T23:52:50.133Z,37.63
2022-09-23T23:57:52.833Z,38.40
